Time;durP1;ratioP1;P1;durP2;ratioP2;P2;SDS_P1;SDS_P2;PMS_P1;PMS_P2;Temp;Humidity;BMP_temperature;BMP_pressure;BME280_temperature;BME280_humidity;BME280_pressure;Samples;Min_cycle;Max_cycle;Signal;HPM_P1;HPM_P2
2022/05/10 00:00:21;;;;;;;2.72;0.80;;;;;;;18.72;47.39;101396.44;5046081;28;20054;-64
2022/05/10 00:02:50;;;;;;;1.17;0.30;;;;;;;18.67;47.36;101390.59;5047677;28;20062;-65
2022/05/10 00:05:25;;;;;;;0.77;0.77;;;;;;;18.64;47.28;101388.66;5049876;28;20036;-64
2022/05/10 00:07:52;;;;;;;0.63;0.52;;;;;;;18.60;47.31;101385.91;5050406;28;20037;-65
2022/05/10 00:10:17;;;;;;;1.00;0.65;;;;;;;18.66;47.52;101389.06;5047638;28;20609;-65
2022/05/10 00:12:43;;;;;;;1.70;0.70;;;;;;;18.65;47.26;101382.00;5050591;28;20048;-64
2022/05/10 00:15:09;;;;;;;0.85;0.68;;;;;;;18.64;47.28;101380.47;5050270;28;20082;-64
2022/05/10 00:17:41;;;;;;;1.13;0.43;;;;;;;18.65;47.32;101382.81;5043894;28;20064;-65
2022/05/10 00:20:08;;;;;;;;;;;;;;;18.53;47.57;101372.28;5050748;28;20104;-64
2022/05/10 00:22:34;;;;;;;0.47;0.43;;;;;;;18.50;47.39;101367.63;5049151;28;20026;-65
2022/05/10 00:24:59;;;;;;;3.42;0.50;;;;;;;18.51;47.72;101369.16;5027774;28;20128;-65
2022/05/10 00:27:25;;;;;;;0.40;0.40;;;;;;;18.52;47.58;101372.69;5051241;28;20063;-64
2022/05/10 00:29:50;;;;;;;1.02;0.77;;;;;;;18.47;47.74;101360.19;5032633;28;20056;-64
2022/05/10 00:32:16;;;;;;;1.55;1.08;;;;;;;18.45;47.72;101361.75;5044021;28;20436;-64
2022/05/10 00:34:43;;;;;;;1.15;0.47;;;;;;;18.41;47.69;101363.66;5031780;28;20051;-64
2022/05/10 00:37:12;;;;;;;1.58;0.63;;;;;;;18.34;48.36;101358.22;5050857;28;20527;-64
2022/05/10 00:39:37;;;;;;;1.45;0.60;;;;;;;18.46;47.85;101364.13;5027965;28;20026;-64
2022/05/10 00:42:11;;;;;;;0.90;0.68;;;;;;;18.44;47.73;101371.13;5048955;28;20399;-64
2022/05/10 00:44:53;;;;;;;4.57;0.60;;;;;;;18.41;48.18;101361.72;5050647;28;20506;-65
2022/05/10 00:47:34;;;;;;;0.90;0.63;;;;;;;18.35;48.38;101362.53;5044211;28;20628;-65
2022/05/10 00:49:59;;;;;;;2.83;0.93;;;;;;;18.36;48.09;101359.41;5050052;28;20072;-64
2022/05/10 00:52:38;;;;;;;0.47;0.35;;;;;;;18.39;48.22;101357.84;5050165;28;20052;-64
2022/05/10 00:55:36;;;;;;;1.15;0.93;;;;;;;18.30;48.46;101357.44;5049869;28;20024;-65
2022/05/10 00:58:22;;;;;;;1.13;0.55;;;;;;;18.25;48.47;101352.38;5034473;28;20040;-64
2022/05/10 01:00:49;;;;;;;0.95;0.75;;;;;;;18.24;48.64;101346.16;5044676;28;20146;-64
2022/05/10 01:03:26;;;;;;;1.38;0.65;;;;;;;18.20;48.97;101341.84;5048920;28;20527;-64
2022/05/10 01:06:14;;;;;;;3.80;0.80;;;;;;;18.22;48.69;101337.56;5050336;28;20517;-64
2022/05/10 01:09:08;;;;;;;0.95;0.73;;;;;;;18.18;48.37;101341.47;5048865;28;20103;-64
2022/05/10 01:11:59;;;;;;;0.63;0.40;;;;;;;18.11;48.90;101331.34;5024685;28;20048;-65
2022/05/10 01:14:42;;;;;;;5.90;1.02;;;;;;;18.08;49.13;101321.19;5038868;28;20040;-65
2022/05/10 01:17:08;;;;;;;0.93;0.70;;;;;;;18.08;48.67;101328.63;5046973;28;20488;-65
2022/05/10 01:19:33;;;;;;;3.90;0.80;;;;;;;18.08;48.87;101323.16;5049323;28;20060;-65
2022/05/10 01:22:19;;;;;;;1.10;0.57;;;;;;;18.07;48.67;101318.88;5049776;28;20037;-64
2022/05/10 01:24:54;;;;;;;1.02;0.73;;;;;;;17.98;49.11;101311.84;5042465;28;20179;-65
2022/05/10 01:27:41;;;;;;;0.82;0.63;;;;;;;17.98;48.87;101317.31;5030985;28;20070;-64
2022/05/10 01:30:19;;;;;;;1.05;0.82;;;;;;;18.02;49.05;101306.44;5049605;28;20061;-65
2022/05/10 01:35:52;;;;;;;1.83;0.77;;;;;;;17.88;49.33;101296.28;5044097;28;20025;-64
2022/05/10 01:38:33;;;;;;;7.60;0.77;;;;;;;17.80;49.85;101294.72;5048139;28;20042;-65
2022/05/10 01:41:09;;;;;;;1.80;1.03;;;;;;;17.86;49.24;101293.19;5028241;28;20037;-65
2022/05/10 01:43:38;;;;;;;1.35;0.90;;;;;;;17.84;49.12;101292.00;5048292;28;20044;-64
2022/05/10 01:46:12;;;;;;;0.77;0.50;;;;;;;17.72;49.87;101284.97;5042517;28;20077;-64
2022/05/10 01:48:39;;;;;;;1.02;0.77;;;;;;;17.68;49.59;101276.00;5042619;28;20369;-64
2022/05/10 01:51:22;;;;;;;1.77;0.50;;;;;;;17.68;49.79;101278.75;5049668;28;20448;-64
2022/05/10 01:53:47;;;;;;;1.10;0.80;;;;;;;17.59;50.08;101272.09;5048874;28;20040;-65
2022/05/10 01:56:17;;;;;;;1.05;0.95;;;;;;;17.63;50.60;101268.22;5044863;28;20033;-64
2022/05/10 01:58:45;;;;;;;2.97;0.75;;;;;;;17.68;50.29;101276.00;5048380;28;20115;-64
2022/05/10 02:01:36;;;;;;;1.35;0.75;;;;;;;17.69;50.54;101268.63;5048881;28;20037;-64
2022/05/10 02:04:08;;;;;;;1.38;0.80;;;;;;;17.61;50.78;101258.88;5046196;28;20064;-65
2022/05/10 02:06:55;;;;;;;7.05;0.80;;;;;;;17.58;51.00;101263.16;5042596;28;20029;-65
2022/05/10 02:09:26;;;;;;;0.65;0.52;;;;;;;17.58;50.46;101259.63;5047877;28;20033;-65
2022/05/10 02:12:21;;;;;;;2.35;0.63;;;;;;;17.53;50.50;101258.09;5047680;28;20388;-65
2022/05/10 02:15:01;;;;;;;1.40;0.77;;;;;;;17.39;50.93;101252.59;5039107;28;20048;-65
2022/05/10 02:17:36;;;;;;;3.22;0.88;;;;;;;17.44;50.64;101254.91;5042363;28;20052;-65
2022/05/10 02:20:08;;;;;;;1.13;0.85;;;;;;;17.45;51.38;101245.59;5041896;28;20033;-65
2022/05/10 02:22:43;;;;;;;1.23;0.90;;;;;;;17.47;51.06;101245.97;5041298;28;20028;-64
2022/05/10 02:25:16;;;;;;;0.45;0.45;;;;;;;17.50;50.64;101252.66;5044371;28;20033;-64
2022/05/10 02:27:46;;;;;;;5.30;0.90;;;;;;;17.44;51.23;101245.97;5039419;28;20033;-64
2022/05/10 02:30:16;;;;;;;5.10;0.60;;;;;;;17.43;51.07;101247.91;5046988;28;20663;-64
2022/05/10 02:33:08;;;;;;;1.48;1.17;;;;;;;17.35;51.35;101234.66;5043692;28;20108;-64
2022/05/10 02:35:45;;;;;;;0.70;0.60;;;;;;;17.28;51.59;101240.09;5042538;28;20108;-64
2022/05/10 02:38:14;;;;;;;1.80;0.90;;;;;;;17.18;52.72;101236.19;5047747;28;20976;-64
2022/05/10 02:40:43;;;;;;;1.55;0.95;;;;;;;17.23;52.02;101237.78;5045447;28;20148;-64
2022/05/10 02:43:11;;;;;;;1.63;1.02;;;;;;;17.27;52.07;101225.72;5045419;28;20036;-64
2022/05/10 02:45:38;;;;;;;1.00;0.82;;;;;;;17.23;51.93;101221.44;5040678;28;20442;-64
2022/05/10 02:48:04;;;;;;;0.90;0.70;;;;;;;17.20;52.47;101217.53;5042705;28;20029;-65
2022/05/10 02:50:33;;;;;;;1.30;0.70;;;;;;;17.26;52.15;101210.53;5047560;28;20060;-64
2022/05/10 02:53:00;;;;;;;0.68;0.55;;;;;;;17.27;52.16;101205.84;5052475;28;20036;-64
2022/05/10 02:55:52;;;;;;;2.83;0.45;;;;;;;17.21;52.49;101201.97;5051888;28;20035;-64
2022/05/10 02:58:31;;;;;;;0.68;0.68;;;;;;;17.15;52.62;101204.28;5047654;28;20480;-64
2022/05/10 03:01:06;;;;;;;0.90;0.75;;;;;;;17.12;53.09;101203.13;5051868;28;20484;-64
2022/05/10 03:03:33;;;;;;;2.72;1.30;;;;;;;17.18;52.43;101200.81;5053065;28;20112;-64
2022/05/10 03:05:59;;;;;;;0.85;0.85;;;;;;;17.06;52.91;101198.44;5050698;28;20075;-64
2022/05/10 03:08:24;;;;;;;2.05;0.95;;;;;;;17.00;53.08;101195.31;5034942;28;20044;-64
2022/05/10 03:10:50;;;;;;;0.60;0.60;;;;;;;16.99;53.70;101195.69;5051875;28;20534;-64
2022/05/10 03:13:15;;;;;;;1.35;0.88;;;;;;;17.00;53.78;101191.81;5052269;28;20040;-64
2022/05/10 03:15:41;;;;;;;4.32;0.98;;;;;;;17.05;53.65;101189.47;5044833;28;20762;-64
2022/05/10 03:18:06;;;;;;;1.52;0.70;;;;;;;17.17;53.38;101190.31;5051155;28;20037;-64
2022/05/10 03:20:32;;;;;;;1.63;0.80;;;;;;;17.02;53.97;101189.47;5052354;28;20061;-64
2022/05/10 03:22:58;;;;;;;0.95;0.75;;;;;;;17.01;54.30;101187.94;5048854;28;20060;-64
2022/05/10 03:25:24;;;;;;;1.95;0.88;;;;;;;17.02;54.41;101182.09;5051779;28;20032;-64
2022/05/10 03:27:50;;;;;;;1.77;0.95;;;;;;;17.05;54.31;101183.28;5048384;28;20029;-64
2022/05/10 03:30:16;;;;;;;2.55;1.05;;;;;;;17.04;54.37;101181.72;5033482;28;20438;-64
2022/05/10 03:32:42;;;;;;;0.60;0.50;;;;;;;16.96;54.73;101180.13;5052359;28;20025;-64
2022/05/10 03:35:08;;;;;;;1.95;1.00;;;;;;;17.02;54.69;101176.66;5049502;28;20041;-64
2022/05/10 03:37:33;;;;;;;1.55;0.77;;;;;;;16.94;54.75;101172.34;5052716;28;20037;-64
2022/05/10 03:39:59;;;;;;;1.58;0.93;;;;;;;16.89;55.15;101174.69;5052057;28;20045;-64
2022/05/10 03:42:25;;;;;;;1.23;0.60;;;;;;;16.92;55.18;101176.63;5052899;28;20033;-64
2022/05/10 03:44:52;;;;;;;2.25;1.08;;;;;;;16.89;55.32;101166.50;5041345;28;20059;-64
2022/05/10 03:47:22;;;;;;;3.33;0.82;;;;;;;16.92;55.28;101165.72;5052484;28;20040;-64
2022/05/10 03:49:49;;;;;;;0.82;0.80;;;;;;;16.95;55.40;101171.19;5052200;28;20036;-64
2022/05/10 03:52:15;;;;;;;1.58;1.00;;;;;;;16.88;55.90;101170.38;5052440;28;20021;-64
2022/05/10 03:54:44;;;;;;;0.75;0.50;;;;;;;16.83;56.16;101157.16;5038670;28;20112;-64
2022/05/10 03:57:10;;;;;;;2.08;0.95;;;;;;;16.86;56.25;101154.44;5033562;28;20388;-64
2022/05/10 03:59:41;;;;;;;1.75;0.80;;;;;;;16.89;56.12;101163.78;5052327;28;20476;-64
2022/05/10 04:02:08;;;;;;;0.93;0.70;;;;;;;16.89;56.42;101161.84;5052404;28;20071;-64
2022/05/10 04:04:33;;;;;;;2.58;2.38;;;;;;;16.87;56.51;101160.69;5047392;28;20030;-64
2022/05/10 04:06:59;;;;;;;2.40;1.10;;;;;;;16.81;56.96;101154.84;5014317;28;20052;-64
2022/05/10 04:09:24;;;;;;;0.60;0.60;;;;;;;16.81;57.37;101157.56;5032404;28;20412;-64
2022/05/10 04:11:49;;;;;;;1.90;0.82;;;;;;;16.90;56.98;101160.69;5032486;28;20087;-64
2022/05/10 04:14:15;;;;;;;3.20;0.80;;;;;;;16.96;56.80;101161.88;5041273;28;20041;-64
2022/05/10 04:16:40;;;;;;;0.73;0.60;;;;;;;16.95;57.15;101156.81;5051693;28;20411;-64
2022/05/10 04:19:06;;;;;;;6.53;1.13;;;;;;;16.97;56.71;101160.72;5051602;28;20032;-64
2022/05/10 04:21:31;;;;;;;1.17;0.82;;;;;;;16.95;57.44;101154.09;5048746;28;20039;-64
2022/05/10 04:23:59;;;;;;;1.05;0.60;;;;;;;16.97;57.25;101151.75;5047463;28;20102;-64
2022/05/10 04:26:25;;;;;;;0.98;0.80;;;;;;;16.97;57.61;101149.81;5032096;28;20029;-64
2022/05/10 04:28:51;;;;;;;1.15;0.73;;;;;;;17.06;57.27;101144.00;5031791;28;20484;-64
2022/05/10 04:31:17;;;;;;;1.38;0.90;;;;;;;17.12;57.36;101150.63;5039178;28;20146;-64
2022/05/10 04:33:43;;;;;;;1.20;0.93;;;;;;;17.12;56.99;101148.69;5051484;28;20049;-64
2022/05/10 04:36:09;;;;;;;0.65;0.60;;;;;;;17.09;57.35;101149.44;5049671;28;20365;-64
2022/05/10 04:38:34;;;;;;;0.82;0.68;;;;;;;17.20;57.06;101135.06;5050704;28;20029;-66
2022/05/10 04:43:43;;;;;;;1.33;0.90;;;;;;;17.16;57.84;101148.69;5033604;28;20071;-64
2022/05/10 04:46:09;;;;;;;1.88;0.93;;;;;;;17.17;57.62;101147.50;5034009;28;20072;-65
2022/05/10 04:48:34;;;;;;;1.02;0.93;;;;;;;17.14;57.87;101137.41;5013464;28;20081;-66
2022/05/10 04:51:01;;;;;;;1.35;0.88;;;;;;;17.25;57.78;101140.16;5030442;28;20029;-64
2022/05/10 04:53:26;;;;;;;0.90;0.63;;;;;;;17.23;58.12;101140.50;5042045;28;20039;-63
2022/05/10 04:55:52;;;;;;;2.78;0.80;;;;;;;17.24;58.40;101133.13;5043889;28;20465;-63
2022/05/10 04:58:17;;;;;;;1.25;0.70;;;;;;;17.35;58.17;101142.88;5041535;28;20072;-66
2022/05/10 05:00:43;;;;;;;3.17;0.80;;;;;;;17.47;57.93;101144.44;5036192;28;20106;-64
2022/05/10 05:03:08;;;;;;;2.92;1.00;;;;;;;17.53;58.37;101132.00;5039348;28;20324;-64
2022/05/10 05:05:33;;;;;;;1.02;0.70;;;;;;;17.50;58.18;101130.84;5050655;28;20025;-64
2022/05/10 05:07:59;;;;;;;1.05;0.70;;;;;;;17.54;58.14;101136.28;5024057;28;20492;-64
2022/05/10 05:10:25;;;;;;;1.40;0.70;;;;;;;17.62;57.78;101135.91;5031018;28;20037;-64
2022/05/10 05:12:51;;;;;;;1.98;0.88;;;;;;;17.60;58.20;101129.28;5031888;28;20033;-64
2022/05/10 05:15:16;;;;;;;2.30;0.98;;;;;;;17.65;58.02;101135.09;5049211;28;20049;-64
2022/05/10 05:17:42;;;;;;;2.45;0.88;;;;;;;17.74;57.69;101130.06;5041546;28;20041;-64
2022/05/10 05:20:09;;;;;;;3.65;0.90;;;;;;;17.88;57.93;101132.75;5034593;28;20035;-64
2022/05/10 05:22:35;;;;;;;0.93;0.77;;;;;;;17.98;57.97;101129.22;5032192;28;20526;-65
2022/05/10 05:25:00;;;;;;;1.55;0.90;;;;;;;18.01;57.89;101135.84;5023956;28;20033;-64
2022/05/10 05:27:25;;;;;;;2.10;0.90;;;;;;;18.11;56.91;101126.06;5042024;28;20031;-64
2022/05/10 05:29:51;;;;;;;3.13;1.15;;;;;;;18.15;56.70;101124.13;5043077;28;20082;-64
2022/05/10 05:32:20;;;;;;;1.42;0.88;;;;;;;18.24;56.95;101121.75;5034829;28;20068;-64
2022/05/10 05:34:45;;;;;;;4.93;0.95;;;;;;;18.11;57.09;101126.06;5045979;28;20063;-64
2022/05/10 05:39:55;;;;;;;1.13;0.80;;;;;;;18.14;57.37;101130.75;5038857;28;20041;-64
2022/05/10 05:42:20;;;;;;;1.33;0.80;;;;;;;18.18;57.69;101132.28;5042592;28;20040;-64
2022/05/10 05:44:46;;;;;;;1.52;0.90;;;;;;;18.14;57.89;101131.50;5023876;28;20029;-64
2022/05/10 05:47:11;;;;;;;3.55;1.33;;;;;;;18.09;58.14;101131.16;5042030;28;20044;-64
2022/05/10 05:49:37;;;;;;;1.02;0.65;;;;;;;18.20;57.82;101140.84;5029246;28;20029;-64
2022/05/10 05:52:04;;;;;;;3.65;0.90;;;;;;;18.31;58.11;101129.91;5007401;28;20099;-64
2022/05/10 05:54:31;;;;;;;2.13;0.85;;;;;;;18.42;57.42;101133.38;5042703;28;20037;-63
2022/05/10 05:57:02;;;;;;;1.13;0.80;;;;;;;18.53;57.10;101121.28;5041604;28;20051;-64
2022/05/10 05:59:27;;;;;;;1.45;0.82;;;;;;;18.66;57.33;101118.88;5042341;28;20025;-64
2022/05/10 06:01:53;;;;;;;2.72;0.90;;;;;;;18.79;57.01;101125.44;5038817;28;20055;-64
2022/05/10 06:04:22;;;;;;;1.02;0.73;;;;;;;18.90;56.60;101121.47;5041683;28;20357;-64
2022/05/10 06:06:47;;;;;;;1.88;0.95;;;;;;;19.13;55.71;101115.47;5040068;28;20484;-64
2022/05/10 06:09:19;;;;;;;1.00;0.57;;;;;;;19.26;55.32;101119.25;5044394;28;20142;-64
2022/05/10 06:11:46;;;;;;;1.45;0.90;;;;;;;19.35;55.56;101119.63;5028619;28;20025;-64
2022/05/10 06:14:11;;;;;;;1.38;0.85;;;;;;;19.35;55.50;101108.69;5041914;28;20033;-64
2022/05/10 06:16:42;;;;;;;1.95;0.90;;;;;;;19.39;55.08;101117.63;5021367;28;20035;-63
2022/05/10 06:19:09;;;;;;;3.65;0.90;;;;;;;19.40;55.24;101119.19;5039148;28;20126;-64
2022/05/10 06:21:36;;;;;;;1.30;0.90;;;;;;;19.45;55.24;101110.53;5042255;28;20033;-64
2022/05/10 06:24:04;;;;;;;0.88;0.52;;;;;;;19.52;55.13;101107.75;5041303;28;20033;-64
2022/05/10 06:26:31;;;;;;;1.00;0.73;;;;;;;19.50;55.48;101099.19;5020259;28;20048;-63
2022/05/10 06:28:57;;;;;;;4.57;0.90;;;;;;;19.64;55.50;101098.28;5032637;28;20044;-63
2022/05/10 06:31:23;;;;;;;6.32;0.80;;;;;;;19.62;56.05;101095.19;5039456;28;20029;-64
2022/05/10 06:33:52;;;;;;;1.15;0.95;;;;;;;19.57;55.49;101093.66;5046110;28;20036;-64
2022/05/10 06:36:17;;;;;;;1.80;0.88;;;;;;;19.61;55.85;101086.19;5048649;28;20039;-64
2022/05/10 06:38:43;;;;;;;1.27;0.65;;;;;;;19.69;56.23;101087.69;5042706;28;20051;-65
2022/05/10 06:41:08;;;;;;;0.52;0.52;;;;;;;19.94;55.25;101092.13;5038039;28;20057;-64
2022/05/10 06:43:35;;;;;;;2.28;0.90;;;;;;;20.04;54.85;101091.22;5035181;28;20056;-64
2022/05/10 06:46:14;;;;;;;1.27;1.02;;;;;;;20.19;55.78;101092.66;5019863;28;20051;-64
2022/05/10 06:48:40;;;;;;;0.95;0.88;;;;;;;20.31;54.84;101092.09;5040918;28;20029;-64
2022/05/10 06:51:09;;;;;;;1.40;0.82;;;;;;;20.43;54.12;101083.34;5035079;28;20033;-64
2022/05/10 06:53:36;;;;;;;0.88;0.70;;;;;;;20.39;54.28;101085.34;5029955;28;20361;-63
2022/05/10 06:56:02;;;;;;;3.05;0.93;;;;;;;20.45;55.06;101072.75;5019900;28;20049;-65
2022/05/10 06:58:28;;;;;;;0.90;0.55;;;;;;;20.58;54.23;101090.19;5039784;28;20040;-64
2022/05/10 07:00:53;;;;;;;1.02;0.75;;;;;;;20.68;53.46;101083.78;5037095;28;20032;-64
2022/05/10 07:03:26;;;;;;;3.47;1.00;;;;;;;20.62;53.82;101072.53;5043951;28;20036;-65
2022/05/10 07:05:52;;;;;;;0.65;0.65;;;;;;;20.61;54.07;101079.16;5016003;28;20388;-64
2022/05/10 07:08:17;;;;;;;0.93;0.77;;;;;;;20.64;54.49;101074.84;5042267;28;20101;-64
2022/05/10 07:10:43;;;;;;;1.00;0.80;;;;;;;20.71;55.34;101063.81;5037112;28;20037;-64
2022/05/10 07:13:13;;;;;;;1.70;0.77;;;;;;;20.91;55.20;101059.19;5042294;28;20484;-65
2022/05/10 07:15:38;;;;;;;1.38;0.60;;;;;;;21.07;54.06;101067.56;5038632;28;20476;-65
2022/05/10 07:18:04;;;;;;;4.80;0.82;;;;;;;21.16;54.10;101065.06;5036430;28;20041;-65
2022/05/10 07:20:29;;;;;;;1.00;0.60;;;;;;;21.34;53.92;101064.78;5041962;28;20133;-64
2022/05/10 07:22:55;;;;;;;1.08;0.70;;;;;;;21.42;54.02;101068.94;5040770;28;20468;-64
2022/05/10 07:25:24;;;;;;;2.05;1.33;;;;;;;21.41;53.65;101064.66;5038957;28;20048;-65
2022/05/10 07:27:49;;;;;;;1.75;0.98;;;;;;;21.42;53.41;101067.00;5043330;28;20065;-64
2022/05/10 07:30:15;;;;;;;1.60;0.85;;;;;;;21.38;54.78;101060.00;5041666;28;20492;-64
2022/05/10 07:32:41;;;;;;;1.17;0.80;;;;;;;21.49;54.77;101064.13;5043424;28;20025;-64
2022/05/10 07:35:07;;;;;;;1.08;0.80;;;;;;;21.68;54.77;101070.06;5049498;28;20051;-64
2022/05/10 07:37:35;;;;;;;3.47;0.73;;;;;;;21.86;53.77;101059.53;5047227;28;20044;-65
2022/05/10 07:40:02;;;;;;;1.52;0.75;;;;;;;21.87;53.53;101056.41;5036765;28;20624;-64
2022/05/10 07:42:28;;;;;;;0.90;0.70;;;;;;;22.00;53.65;101057.31;5041265;28;20080;-64
2022/05/10 07:44:53;;;;;;;6.18;1.10;;;;;;;22.17;53.21;101058.13;5043864;28;20072;-64
2022/05/10 07:47:19;;;;;;;1.23;0.95;;;;;;;22.19;52.48;101059.25;5045790;28;20028;-64
2022/05/10 07:49:45;;;;;;;1.50;0.77;;;;;;;22.20;53.04;101054.56;5048185;28;20038;-64
2022/05/10 07:52:12;;;;;;;0.90;0.70;;;;;;;22.17;53.15;101056.16;5041732;28;20040;-64
2022/05/10 07:54:38;;;;;;;0.98;0.80;;;;;;;22.25;53.33;101045.81;5046844;28;20123;-64
2022/05/10 07:57:04;;;;;;;0.93;0.70;;;;;;;22.39;53.90;101051.00;5043195;28;20444;-64
2022/05/10 07:59:31;;;;;;;4.05;1.10;;;;;;;22.58;52.74;101050.22;5040229;28;20060;-64
2022/05/10 08:01:58;;;;;;;0.80;0.73;;;;;;;22.60;53.15;101047.03;5042593;28;20037;-65
2022/05/10 08:04:24;;;;;;;3.05;0.60;;;;;;;22.74;54.13;101042.00;5036006;28;20139;-64
2022/05/10 08:06:52;;;;;;;1.02;0.77;;;;;;;22.86;53.62;101040.56;5046002;28;20029;-64
2022/05/10 08:09:19;;;;;;;1.30;0.75;;;;;;;23.04;52.98;101033.41;5047789;28;20061;-64
2022/05/10 08:11:46;;;;;;;3.85;1.02;;;;;;;23.06;52.71;101039.25;5026917;28;20391;-64
2022/05/10 08:14:12;;;;;;;2.15;0.88;;;;;;;23.12;52.38;101037.53;5046298;28;20380;-64
2022/05/10 08:16:38;;;;;;;1.20;0.60;;;;;;;23.14;52.97;101035.13;5048636;28;20036;-64
2022/05/10 08:19:03;;;;;;;1.95;0.90;;;;;;;23.25;53.82;101034.84;5037360;28;20037;-64
2022/05/10 08:21:29;;;;;;;2.28;1.00;;;;;;;23.36;53.35;101040.13;5038004;28;20090;-64
2022/05/10 08:23:55;;;;;;;1.63;1.00;;;;;;;23.38;53.20;101037.69;5051447;28;20454;-64
2022/05/10 08:26:21;;;;;;;1.10;0.82;;;;;;;23.46;53.14;101039.81;5047678;28;20503;-64
2022/05/10 08:28:47;;;;;;;1.88;1.02;;;;;;;23.61;52.60;101041.00;5044689;28;20029;-64
2022/05/10 08:31:14;;;;;;;1.23;0.80;;;;;;;23.66;52.15;101037.72;5048718;28;20392;-64
2022/05/10 08:33:42;;;;;;;2.97;0.90;;;;;;;23.78;52.12;101027.97;5048135;28;20120;-64
2022/05/10 08:36:08;;;;;;;1.17;0.80;;;;;;;23.74;52.69;101035.53;5050462;28;20041;-64
2022/05/10 08:38:34;;;;;;;1.00;0.63;;;;;;;23.80;53.10;101031.03;5049954;28;20063;-64
2022/05/10 08:41:01;;;;;;;1.42;1.00;;;;;;;23.97;51.38;101019.53;5049003;28;20518;-64
2022/05/10 08:43:49;;;;;;;1.90;0.88;;;;;;;23.97;52.48;101024.25;5045515;28;20043;-64
2022/05/10 08:46:17;;;;;;;2.30;1.17;;;;;;;24.09;51.24;101016.06;5048009;28;20539;-64
2022/05/10 08:48:46;;;;;;;1.63;0.82;;;;;;;24.14;51.43;101020.25;5049422;28;20553;-64
2022/05/10 08:51:12;;;;;;;2.08;0.88;;;;;;;24.25;51.75;101017.19;5046066;28;20048;-64
2022/05/10 08:53:38;;;;;;;2.30;1.00;;;;;;;24.48;50.16;101014.91;5048755;28;20025;-64
2022/05/10 08:56:15;;;;;;;2.30;1.02;;;;;;;24.67;51.13;101029.66;5049673;28;20069;-64
2022/05/10 08:59:29;;;;;;;1.08;0.70;;;;;;;24.86;50.51;101017.63;5048537;28;20029;-65
2022/05/10 09:02:14;;;;;;;1.08;0.65;;;;;;;25.01;50.39;101019.50;5027847;28;20143;-64
2022/05/10 09:04:51;;;;;;;1.35;0.98;;;;;;;25.13;48.21;101017.13;5047181;28;20040;-64
2022/05/10 09:07:42;;;;;;;1.75;1.45;;;;;;;25.13;49.04;101015.16;5049243;28;20040;-65
2022/05/10 09:10:22;;;;;;;1.52;1.30;;;;;;;25.16;48.92;101008.00;5009132;28;20048;-65
2022/05/10 09:13:02;;;;;;;2.20;1.05;;;;;;;25.12;49.67;101007.34;5023242;28;20033;-64
2022/05/10 09:15:36;;;;;;;2.45;1.00;;;;;;;25.11;49.34;101005.78;5041770;28;20033;-65
2022/05/10 09:18:18;;;;;;;1.35;1.00;;;;;;;25.11;48.96;101005.78;5023845;28;20080;-64
2022/05/10 09:21:12;;;;;;;1.45;0.80;;;;;;;25.20;49.39;101003.13;5049543;28;20040;-64
2022/05/10 09:24:03;;;;;;;1.08;0.80;;;;;;;25.46;48.22;101004.59;5041098;28;20060;-64
2022/05/10 09:26:37;;;;;;;1.95;0.85;;;;;;;25.65;47.87;101000.75;5040756;28;20068;-64
2022/05/10 09:29:24;;;;;;;2.15;1.00;;;;;;;25.94;47.07;100990.97;5043840;28;20037;-64
2022/05/10 09:34:46;;;;;;;1.00;0.80;;;;;;;26.43;46.63;100993.84;5048994;28;20039;-65
2022/05/10 09:37:31;;;;;;;2.38;1.17;;;;;;;26.57;45.08;100985.00;5049375;28;20043;-65
2022/05/10 09:39:57;;;;;;;1.50;0.90;;;;;;;26.66;46.14;100989.78;5045849;28;20095;-65
2022/05/10 09:42:40;;;;;;;1.45;0.85;;;;;;;26.79;45.17;100988.44;5049262;28;20378;-65
2022/05/10 09:45:11;;;;;;;1.35;0.80;;;;;;;26.76;44.86;100988.59;5043636;28;20063;-65
2022/05/10 09:47:38;;;;;;;1.42;0.90;;;;;;;26.73;45.23;100981.97;5042826;28;20037;-64
2022/05/10 09:50:19;;;;;;;2.58;0.80;;;;;;;26.74;44.64;100980.00;5043024;28;20056;-65
2022/05/10 09:52:47;;;;;;;1.30;0.77;;;;;;;26.82;44.67;100972.16;5048210;28;20029;-65
2022/05/10 09:55:26;;;;;;;0.98;0.70;;;;;;;26.84;43.83;100961.44;5048108;28;20381;-65
2022/05/10 09:57:54;;;;;;;0.50;0.47;;;;;;;26.91;42.05;100961.13;5046226;28;20695;-65
2022/05/10 10:00:39;;;;;;;1.38;0.68;;;;;;;26.83;42.57;100962.66;5049272;28;20040;-65
2022/05/10 10:03:05;;;;;;;1.92;0.50;;;;;;;26.80;42.80;100956.03;5048787;28;20037;-65
2022/05/10 10:05:33;;;;;;;2.25;0.70;;;;;;;27.01;43.91;100959.91;5042190;28;20026;-65
2022/05/10 10:07:58;;;;;;;0.60;0.60;;;;;;;27.13;43.11;100959.78;5048427;28;20452;-65
2022/05/10 10:10:38;;;;;;;0.55;0.52;;;;;;;27.18;42.36;100948.06;5048254;28;20043;-65
2022/05/10 10:13:25;;;;;;;1.60;0.90;;;;;;;27.35;42.23;100946.56;5043607;28;20033;-65
2022/05/10 10:15:51;;;;;;;1.67;0.80;;;;;;;27.42;41.82;100945.47;5040495;28;20086;-65
2022/05/10 10:18:52;;;;;;;4.55;1.50;;;;;;;27.58;41.32;100942.41;5048132;28;20036;-65
2022/05/10 10:21:37;;;;;;;3.47;0.73;;;;;;;27.68;41.13;100943.88;5005364;28;20048;-64
2022/05/10 10:24:04;;;;;;;1.38;0.85;;;;;;;27.65;41.52;100931.00;5045497;28;20064;-64
2022/05/10 10:26:45;;;;;;;0.65;0.57;;;;;;;27.71;41.45;100928.34;5048549;28;20072;-64
2022/05/10 10:29:27;;;;;;;0.57;0.50;;;;;;;27.87;41.58;100926.00;5045550;28;20499;-64
2022/05/10 10:31:59;;;;;;;0.85;0.70;;;;;;;27.91;41.62;100925.84;5042183;28;20434;-64
2022/05/10 10:34:37;;;;;;;1.63;0.80;;;;;;;27.95;40.80;100924.44;5048721;28;20071;-64
2022/05/10 10:37:09;;;;;;;1.20;0.77;;;;;;;28.01;40.70;100924.59;5048228;28;20128;-64
2022/05/10 10:40:03;;;;;;;0.82;0.70;;;;;;;28.13;40.93;100921.63;5046454;28;20033;-64
2022/05/10 10:42:35;;;;;;;0.47;0.40;;;;;;;28.27;40.81;100918.16;5044706;28;20465;-64
2022/05/10 10:45:04;;;;;;;1.70;0.80;;;;;;;28.31;40.44;100910.44;5047989;28;20119;-65
2022/05/10 10:47:54;;;;;;;1.52;0.88;;;;;;;28.51;40.59;100896.75;5048603;28;20507;-64
2022/05/10 10:50:30;;;;;;;1.63;0.80;;;;;;;28.83;40.48;100895.19;5045441;28;20044;-65
2022/05/10 10:52:58;;;;;;;0.75;0.60;;;;;;;29.08;39.22;100893.88;5030993;28;20492;-65
2022/05/10 10:55:43;;;;;;;1.70;0.70;;;;;;;29.25;39.16;100894.97;5045682;28;20036;-65
2022/05/10 10:58:41;;;;;;;0.95;0.60;;;;;;;29.42;38.94;100892.53;5017311;28;20503;-64
2022/05/10 11:01:25;;;;;;;0.82;0.80;;;;;;;29.50;38.35;100888.88;4997979;28;20033;-64
2022/05/10 11:04:06;;;;;;;0.95;0.50;;;;;;;29.69;38.72;100887.44;5046709;28;20068;-64
2022/05/10 11:06:57;;;;;;;1.02;0.73;;;;;;;29.69;38.18;100890.22;5045033;28;20033;-65
2022/05/10 11:09:59;;;;;;;2.15;0.60;;;;;;;29.68;37.69;100880.34;5041935;28;20036;-65
2022/05/10 11:12:52;;;;;;;1.00;0.80;;;;;;;29.54;37.86;100888.69;5018734;28;21249;-65
2022/05/10 11:15:31;;;;;;;0.82;0.65;;;;;;;29.42;37.55;100882.19;5049761;28;20052;-65
2022/05/10 11:18:15;;;;;;;3.30;0.80;;;;;;;29.27;37.93;100867.50;5051345;28;20396;-65
2022/05/10 11:21:05;;;;;;;0.82;0.60;;;;;;;28.99;37.46;100858.69;5043977;28;20033;-65
2022/05/10 11:23:49;;;;;;;0.73;0.52;;;;;;;28.78;37.75;100864.56;5032086;28;20072;-66
2022/05/10 11:26:21;;;;;;;1.38;0.70;;;;;;;28.78;37.50;100870.09;5043027;28;20029;-65
2022/05/10 11:29:02;;;;;;;2.00;0.57;;;;;;;28.72;37.50;100856.13;5041724;28;20037;-65
2022/05/10 11:31:39;;;;;;;1.05;0.60;;;;;;;28.83;37.62;100861.91;5040082;28;20052;-65
2022/05/10 11:34:05;;;;;;;1.33;0.80;;;;;;;28.78;38.27;100861.78;5051352;28;20446;-65
2022/05/10 11:36:41;;;;;;;0.88;0.68;;;;;;;28.83;38.54;100850.03;5049723;28;20318;-66
2022/05/10 11:39:47;;;;;;;0.80;0.60;;;;;;;28.93;37.74;100848.72;5047846;28;20043;-66
2022/05/10 11:42:18;;;;;;;1.65;0.70;;;;;;;28.86;38.30;100844.28;5052570;28;20514;-65
2022/05/10 11:45:05;;;;;;;4.00;1.02;;;;;;;28.82;38.24;100840.97;5052217;28;20060;-65
2022/05/10 11:47:40;;;;;;;1.38;0.70;;;;;;;28.83;38.06;100827.84;5039914;28;20044;-64
2022/05/10 11:50:15;;;;;;;0.60;0.60;;;;;;;28.77;38.65;100833.28;5052459;28;20116;-65
2022/05/10 11:52:43;;;;;;;0.95;0.63;;;;;;;28.85;38.28;100826.13;5052473;28;20043;-65
2022/05/10 11:55:28;;;;;;;1.33;0.80;;;;;;;28.93;38.38;100824.50;5033726;28;20047;-65